Time;durP1;ratioP1;P1;durP2;ratioP2;P2;SDS_P1;SDS_P2;PMS_P1;PMS_P2;Temp;Humidity;BMP_temperature;BMP_pressure;BME280_temperature;BME280_humidity;BME280_pressure;Samples;Min_cycle;Max_cycle;Signal;HPM_P1;HPM_P2
2023/05/06 00:01:29;;;;;;;6.80;4.53;;;12.00;99.90;;;;;;2602341;54;20097;31
2023/05/06 00:04:07;;;;;;;7.15;4.53;;;12.00;99.90;;;;;;2603249;54;20806;31
2023/05/06 00:06:44;;;;;;;10.75;4.65;;;11.90;99.90;;;;;;2603114;54;20844;31
2023/05/06 00:09:22;;;;;;;9.75;4.85;;;11.90;99.90;;;;;;2603238;54;20890;31
2023/05/06 00:11:57;;;;;;;8.63;4.30;;;11.90;99.90;;;;;;2603248;54;21142;31
2023/05/06 00:14:32;;;;;;;7.95;4.38;;;11.80;99.90;;;;;;2603071;54;20242;31
2023/05/06 00:17:13;;;;;;;13.38;4.78;;;11.80;99.90;;;;;;2603132;54;20030;31
2023/05/06 00:19:52;;;;;;;9.63;4.60;;;11.80;99.90;;;;;;2621860;46;20920;31
2023/05/06 00:22:31;;;;;;;8.15;4.45;;;11.70;99.90;;;;;;2603050;54;20036;31
2023/05/06 00:27:45;;;;;;;8.88;5.28;;;11.60;99.90;;;;;;2603070;54;20030;31
2023/05/06 00:30:21;;;;;;;8.88;4.22;;;11.60;99.90;;;;;;2602270;54;20894;31
2023/05/06 00:33:01;;;;;;;6.47;4.55;;;11.60;99.90;;;;;;2602000;54;20923;31
2023/05/06 00:35:38;;;;;;;7.60;4.35;;;11.70;99.90;;;;;;2602285;54;20041;31
2023/05/06 00:38:15;;;;;;;8.85;4.50;;;11.60;99.90;;;;;;2621313;46;20077;31
2023/05/06 00:40:54;;;;;;;9.52;4.38;;;11.60;99.90;;;;;;2602240;54;20418;31
2023/05/06 00:43:33;;;;;;;10.68;4.85;;;11.60;99.90;;;;;;2602189;54;20979;31
2023/05/06 00:46:10;;;;;;;7.32;4.30;;;11.60;99.90;;;;;;2602261;54;20969;31
2023/05/06 00:48:51;;;;;;;10.27;4.15;;;11.60;99.90;;;;;;2602272;54;20032;31
2023/05/06 00:51:28;;;;;;;10.90;5.20;;;11.60;99.90;;;;;;2602184;54;20030;31
2023/05/06 00:54:04;;;;;;;6.17;4.50;;;11.50;99.90;;;;;;2617581;46;20868;31
2023/05/06 00:56:39;;;;;;;7.95;4.32;;;11.50;99.90;;;;;;2602470;54;20092;31
2023/05/06 00:59:15;;;;;;;;;;;11.50;99.90;;;;;;2603270;54;20093;31
2023/05/06 01:01:53;;;;;;;14.95;4.70;;;11.50;99.90;;;;;;2602994;54;19939;31
2023/05/06 01:04:34;;;;;;;7.30;4.50;;;11.40;99.90;;;;;;2602231;54;20501;31
2023/05/06 01:07:15;;;;;;;7.70;4.60;;;11.50;99.90;;;;;;2602010;54;20046;31
2023/05/06 01:09:53;;;;;;;7.10;4.13;;;11.50;99.90;;;;;;2614046;46;20925;31
2023/05/06 01:12:34;;;;;;;7.35;4.85;;;11.50;99.90;;;;;;2601712;54;21181;31
2023/05/06 01:15:11;;;;;;;9.90;4.40;;;11.50;99.90;;;;;;2621108;46;21499;31
2023/05/06 01:17:50;;;;;;;10.98;4.28;;;11.50;99.90;;;;;;2602109;54;20875;31
2023/05/06 01:20:32;;;;;;;10.85;4.25;;;11.50;99.90;;;;;;2602995;54;20133;31
2023/05/06 01:23:14;;;;;;;8.95;4.30;;;11.50;99.90;;;;;;2602880;54;20776;31
2023/05/06 01:25:50;;;;;;;8.02;3.97;;;11.60;99.90;;;;;;2621078;46;21702;31
2023/05/06 01:28:26;;;;;;;9.10;4.32;;;11.50;99.90;;;;;;2602851;54;20732;31
2023/05/06 01:31:05;;;;;;;10.38;4.10;;;11.50;99.90;;;;;;2602034;54;20064;31
2023/05/06 01:33:44;;;;;;;11.65;4.63;;;11.50;99.90;;;;;;2602246;54;20051;31
2023/05/06 01:36:23;;;;;;;8.60;4.68;;;11.50;99.90;;;;;;2603142;54;20029;31
2023/05/06 01:39:10;;;;;;;8.20;4.45;;;11.50;99.90;;;;;;2602736;54;20974;31
2023/05/06 01:41:47;;;;;;;6.13;4.15;;;11.50;99.90;;;;;;2602667;54;20073;31
2023/05/06 01:44:25;;;;;;;7.07;4.77;;;11.50;99.90;;;;;;2602104;54;20885;31
2023/05/06 01:47:03;;;;;;;5.93;3.77;;;11.50;99.90;;;;;;2603051;54;20097;31
2023/05/06 01:49:38;;;;;;;8.65;4.50;;;11.50;99.90;;;;;;2602076;54;20769;31
2023/05/06 01:52:17;;;;;;;8.52;4.47;;;11.50;99.90;;;;;;2620519;46;21157;31
2023/05/06 01:54:55;;;;;;;9.82;4.30;;;11.40;99.90;;;;;;2601900;54;20096;31
2023/05/06 01:57:32;;;;;;;8.77;4.53;;;11.50;99.90;;;;;;2607331;39;21377;31
2023/05/06 02:00:11;;;;;;;10.57;5.03;;;11.50;99.90;;;;;;2601956;54;20716;31
2023/05/06 02:02:48;;;;;;;7.75;4.25;;;11.40;99.90;;;;;;2614307;46;20061;31
2023/05/06 02:05:28;;;;;;;9.07;4.43;;;11.40;99.90;;;;;;2601805;54;20043;31
2023/05/06 02:08:13;;;;;;;7.35;4.30;;;11.40;99.90;;;;;;2602689;54;20065;31
2023/05/06 02:10:54;;;;;;;6.85;4.13;;;11.40;99.90;;;;;;2621723;46;20910;31
2023/05/06 02:13:30;;;;;;;7.93;4.10;;;11.40;99.90;;;;;;2602652;54;20050;31
2023/05/06 02:16:08;;;;;;;8.98;4.35;;;11.40;99.90;;;;;;2602768;54;20041;31
2023/05/06 02:18:51;;;;;;;9.27;4.90;;;11.40;99.90;;;;;;2621252;47;19962;31
2023/05/06 02:21:26;;;;;;;9.10;4.70;;;11.40;99.90;;;;;;2602561;54;20886;31
2023/05/06 02:24:06;;;;;;;10.38;4.28;;;11.40;99.90;;;;;;2602730;54;20043;31
2023/05/06 02:26:45;;;;;;;15.30;4.50;;;11.40;99.90;;;;;;2601599;54;20039;31
2023/05/06 02:29:21;;;;;;;7.65;4.50;;;11.40;99.90;;;;;;2602025;54;20926;31
2023/05/06 02:32:00;;;;;;;7.03;4.18;;;11.40;99.90;;;;;;2602837;54;20050;31
2023/05/06 02:34:38;;;;;;;7.93;4.32;;;11.40;99.90;;;;;;2602491;54;20849;31
2023/05/06 02:37:16;;;;;;;7.10;4.60;;;11.40;99.90;;;;;;2601634;54;20008;31
2023/05/06 02:39:51;;;;;;;8.40;4.68;;;11.40;99.90;;;;;;2620883;47;20038;31
2023/05/06 02:42:31;;;;;;;10.00;4.20;;;11.40;99.90;;;;;;2618080;47;20141;31
2023/05/06 02:45:08;;;;;;;8.02;4.88;;;11.40;99.90;;;;;;2625706;39;22526;31
2023/05/06 02:47:48;;;;;;;9.60;4.70;;;11.30;99.90;;;;;;2602542;54;20886;31
2023/05/06 02:50:25;;;;;;;9.17;4.40;;;11.40;99.90;;;;;;2601997;54;21562;31
2023/05/06 02:53:09;;;;;;;9.68;4.80;;;11.40;99.90;;;;;;2602776;54;20029;31
2023/05/06 02:55:48;;;;;;;10.47;5.03;;;11.40;99.90;;;;;;2601771;54;20450;31
2023/05/06 02:58:30;;;;;;;6.30;4.10;;;11.30;99.90;;;;;;2620767;47;20897;31
2023/05/06 03:01:05;;;;;;;10.07;4.15;;;11.30;99.90;;;;;;2621301;47;20049;31
2023/05/06 03:03:45;;;;;;;10.38;4.45;;;11.30;99.90;;;;;;2601637;54;22226;31
2023/05/06 03:06:23;;;;;;;11.50;4.50;;;11.30;99.90;;;;;;2601488;54;20027;31
2023/05/06 03:09:01;;;;;;;10.15;5.20;;;11.30;99.90;;;;;;2613868;47;20085;31
2023/05/06 03:11:37;;;;;;;7.60;4.22;;;11.30;99.90;;;;;;2620825;47;20089;31
2023/05/06 03:14:17;;;;;;;9.82;4.72;;;11.30;99.90;;;;;;2611638;31;21528;31
2023/05/06 03:16:59;;;;;;;8.48;4.22;;;11.30;99.90;;;;;;2602440;54;20035;31
2023/05/06 03:19:35;;;;;;;11.48;4.47;;;11.30;99.90;;;;;;2602162;47;20056;31
2023/05/06 03:22:18;;;;;;;9.63;4.17;;;11.30;99.90;;;;;;2603297;54;20792;31
2023/05/06 03:24:54;;;;;;;10.38;4.30;;;11.30;99.90;;;;;;2603235;54;20254;31
2023/05/06 03:27:32;;;;;;;11.48;5.47;;;11.30;99.90;;;;;;2612450;46;20037;31
2023/05/06 03:30:24;;;;;;;6.75;4.50;;;11.30;99.90;;;;;;2609137;39;21506;31
2023/05/06 03:33:03;;;;;;;7.88;4.55;;;11.30;99.90;;;;;;2603352;54;20038;31
2023/05/06 03:35:41;;;;;;;7.53;4.20;;;11.30;99.90;;;;;;2603176;54;20986;31
2023/05/06 03:38:18;;;;;;;8.52;4.95;;;11.30;99.90;;;;;;2627397;39;21316;31
2023/05/06 03:41:03;;;;;;;7.50;4.00;;;11.30;99.90;;;;;;2603168;54;20907;31
2023/05/06 03:43:39;;;;;;;8.63;4.55;;;11.30;99.90;;;;;;2603093;54;21195;31
2023/05/06 03:46:19;;;;;;;9.97;5.30;;;11.30;99.90;;;;;;2603292;54;21559;31
2023/05/06 03:48:59;;;;;;;8.73;4.13;;;11.30;99.90;;;;;;2603375;54;20262;31
2023/05/06 03:51:34;;;;;;;9.63;4.38;;;11.20;99.90;;;;;;2618240;39;20508;31
2023/05/06 03:54:12;;;;;;;8.55;4.85;;;11.20;99.90;;;;;;2603184;54;20054;31
2023/05/06 03:56:48;;;;;;;7.38;4.28;;;11.20;99.90;;;;;;2603240;54;20058;31
2023/05/06 03:59:25;;;;;;;11.52;4.70;;;11.20;99.90;;;;;;2603371;54;20866;31
2023/05/06 04:02:07;;;;;;;10.80;4.72;;;11.20;99.90;;;;;;2603395;54;20439;31
2023/05/06 04:04:49;;;;;;;8.65;4.40;;;11.10;99.90;;;;;;2603233;54;20867;31
2023/05/06 04:07:25;;;;;;;10.10;5.50;;;11.10;99.90;;;;;;2621659;46;20448;31
2023/05/06 04:10:01;;;;;;;7.63;4.45;;;11.10;99.90;;;;;;2616805;46;20050;31
2023/05/06 04:12:40;;;;;;;10.07;4.70;;;11.10;99.90;;;;;;2621814;46;20105;31
2023/05/06 04:15:18;;;;;;;8.55;4.90;;;11.00;99.90;;;;;;2602951;54;20030;31
2023/05/06 04:18:02;;;;;;;7.28;4.10;;;11.00;99.90;;;;;;2603018;54;20104;31
2023/05/06 04:20:38;;;;;;;9.07;4.72;;;11.00;99.90;;;;;;2621467;46;20072;31
2023/05/06 04:23:14;;;;;;;7.15;3.78;;;10.90;99.90;;;;;;2602957;54;20030;31
2023/05/06 04:25:53;;;;;;;12.93;4.20;;;10.90;99.90;;;;;;2603192;54;20842;31
2023/05/06 04:28:37;;;;;;;9.07;3.87;;;11.00;99.90;;;;;;2603027;54;20029;31
2023/05/06 04:31:16;;;;;;;6.35;4.55;;;11.10;99.90;;;;;;2602757;54;19950;31
2023/05/06 04:34:00;;;;;;;7.50;4.72;;;11.20;99.90;;;;;;2602857;54;20046;31
2023/05/06 04:36:39;;;;;;;7.63;4.22;;;11.10;99.90;;;;;;2603168;54;20077;31
2023/05/06 04:39:46;;;;;;;7.80;4.57;;;11.10;99.90;;;;;;2618971;39;21328;31
2023/05/06 04:42:27;;;;;;;6.93;4.95;;;10.90;99.90;;;;;;2608396;39;20608;31
2023/05/06 04:45:16;;;;;;;10.40;4.80;;;10.80;99.90;;;;;;2603178;54;20054;31
2023/05/06 04:47:58;;;;;;;10.20;4.75;;;10.80;99.90;;;;;;2602107;54;20037;31
2023/05/06 04:50:39;;;;;;;10.63;4.70;;;10.70;99.90;;;;;;2602865;54;20089;31
2023/05/06 04:53:15;;;;;;;7.22;5.40;;;10.60;99.90;;;;;;2621231;46;20904;31
2023/05/06 04:55:57;;;;;;;9.10;4.70;;;10.60;99.90;;;;;;2602862;54;20801;31
2023/05/06 04:58:35;;;;;;;6.47;4.30;;;10.60;99.90;;;;;;2602031;54;20317;31
2023/05/06 05:01:11;;;;;;;8.95;5.00;;;10.60;99.90;;;;;;2619657;46;20022;31
2023/05/06 05:03:48;;;;;;;7.45;4.65;;;10.60;99.90;;;;;;2612098;46;20026;31
2023/05/06 05:06:28;;;;;;;9.27;4.03;;;10.50;99.90;;;;;;2602180;54;20058;31
2023/05/06 05:09:06;;;;;;;12.50;5.10;;;10.50;99.90;;;;;;2611675;46;20045;31
2023/05/06 05:11:46;;;;;;;7.72;4.65;;;10.50;99.90;;;;;;2602866;54;20048;31
2023/05/06 05:14:25;;;;;;;9.35;4.50;;;10.50;99.90;;;;;;2616059;39;20327;31
2023/05/06 05:17:00;;;;;;;8.15;4.28;;;10.40;99.90;;;;;;2602647;54;20042;31
2023/05/06 05:19:39;;;;;;;6.97;4.65;;;10.50;99.90;;;;;;2602917;54;19934;31
2023/05/06 05:22:19;;;;;;;10.20;4.90;;;10.50;99.90;;;;;;2620710;46;20134;31
2023/05/06 05:24:57;;;;;;;7.65;5.13;;;10.50;99.90;;;;;;2621194;46;20037;31
2023/05/06 05:27:35;;;;;;;9.02;4.57;;;10.50;99.90;;;;;;2612907;46;20872;31
2023/05/06 05:30:14;;;;;;;5.95;4.70;;;10.50;99.90;;;;;;2601841;54;20046;31
2023/05/06 05:32:50;;;;;;;14.35;4.70;;;10.50;99.90;;;;;;2601659;54;20030;31
2023/05/06 05:35:26;;;;;;;;;;;10.60;99.90;;;;;;2602460;54;20027;31
2023/05/06 05:38:06;;;;;;;7.22;4.65;;;10.60;99.90;;;;;;2614128;46;19951;31
2023/05/06 05:40:43;;;;;;;6.03;4.13;;;10.60;99.90;;;;;;2601906;54;20778;31
2023/05/06 05:43:24;;;;;;;9.73;5.40;;;10.70;99.90;;;;;;2602755;54;20243;31
2023/05/06 05:46:05;;;;;;;10.18;4.70;;;10.70;99.90;;;;;;2621243;46;20034;31
2023/05/06 05:48:42;;;;;;;7.65;5.07;;;10.70;99.90;;;;;;2602868;54;20042;31
2023/05/06 05:51:20;;;;;;;7.18;4.28;;;10.70;99.90;;;;;;2636009;39;21429;31
2023/05/06 05:54:00;;;;;;;6.25;4.43;;;10.80;99.90;;;;;;2638228;39;21372;31
2023/05/06 05:56:35;;;;;;;7.40;4.55;;;10.80;99.90;;;;;;2602726;54;19950;31
2023/05/06 05:59:10;;;;;;;7.87;4.50;;;10.80;99.90;;;;;;2602096;54;20023;31
2023/05/06 06:01:47;;;;;;;7.23;4.37;;;10.80;99.90;;;;;;2602834;54;20065;31
2023/05/06 06:04:26;;;;;;;10.63;4.85;;;10.80;99.90;;;;;;2621230;46;20022;31
2023/05/06 06:07:01;;;;;;;7.50;4.63;;;10.80;99.90;;;;;;2602525;54;20048;31
2023/05/06 06:09:47;;;;;;;6.13;4.27;;;10.90;99.90;;;;;;2602575;54;20030;31
2023/05/06 06:12:23;;;;;;;6.95;4.85;;;10.90;99.90;;;;;;2602995;54;19950;31
2023/05/06 06:15:08;;;;;;;8.30;3.75;;;10.80;99.90;;;;;;2676899;39;20258;31
2023/05/06 06:17:47;;;;;;;6.40;3.97;;;10.80;99.90;;;;;;2620974;47;20078;31
2023/05/06 06:20:23;;;;;;;6.43;4.32;;;10.90;99.90;;;;;;2602514;54;20794;31
2023/05/06 06:23:02;;;;;;;9.35;5.28;;;10.90;99.90;;;;;;2619979;47;20128;31
2023/05/06 06:25:46;;;;;;;8.95;4.93;;;10.90;99.90;;;;;;2601899;54;20035;31
2023/05/06 06:28:22;;;;;;;9.57;5.23;;;10.90;99.90;;;;;;2621273;47;20771;31
2023/05/06 06:31:00;;;;;;;7.93;4.70;;;10.80;99.90;;;;;;2621146;47;20950;31
2023/05/06 06:36:11;;;;;;;8.05;4.95;;;10.70;99.90;;;;;;2602635;54;20050;31
2023/05/06 06:38:52;;;;;;;10.70;5.47;;;10.70;99.90;;;;;;2602372;54;20113;31
2023/05/06 06:41:32;;;;;;;12.05;5.63;;;10.60;99.90;;;;;;2602467;54;20896;31
2023/05/06 06:44:09;;;;;;;14.63;5.72;;;10.60;99.90;;;;;;2602525;54;21182;31
2023/05/06 06:46:47;;;;;;;9.15;6.10;;;10.50;99.90;;;;;;2602450;54;20883;31
2023/05/06 06:49:23;;;;;;;8.77;5.40;;;10.50;99.90;;;;;;2621102;47;20049;31
2023/05/06 06:52:01;;;;;;;9.75;6.20;;;10.50;99.90;;;;;;2602573;54;20026;31
2023/05/06 06:54:40;;;;;;;11.18;5.53;;;10.50;99.90;;;;;;2610550;46;22270;31
2023/05/06 06:57:19;;;;;;;8.68;5.40;;;10.40;99.90;;;;;;2602854;54;20848;31
2023/05/06 06:59:58;;;;;;;8.77;4.97;;;10.40;99.90;;;;;;2602360;54;20886;31
2023/05/06 07:02:34;;;;;;;6.40;4.75;;;10.40;99.90;;;;;;2603353;54;20432;31
2023/05/06 07:05:13;;;;;;;6.90;4.85;;;10.40;99.90;;;;;;2603383;54;20883;31
2023/05/06 07:07:51;;;;;;;8.65;5.90;;;10.40;99.90;;;;;;2603396;54;20959;31
2023/05/06 07:10:25;;;;;;;11.57;6.05;;;10.40;99.90;;;;;;2603351;54;20910;31
2023/05/06 07:13:04;;;;;;;7.53;5.73;;;10.40;99.90;;;;;;2603124;54;20790;31
2023/05/06 07:15:41;;;;;;;12.05;6.13;;;10.40;99.90;;;;;;2603389;54;20269;31
2023/05/06 07:18:20;;;;;;;13.32;6.95;;;10.40;99.90;;;;;;2603396;54;20982;31
2023/05/06 07:20:56;;;;;;;9.95;6.63;;;10.40;99.90;;;;;;2603400;54;20804;31
2023/05/06 07:23:32;;;;;;;11.82;6.05;;;10.40;99.90;;;;;;2603218;54;20034;31
2023/05/06 07:26:11;;;;;;;11.20;6.33;;;10.40;99.90;;;;;;2603541;54;20026;31
2023/05/06 07:28:54;;;;;;;8.50;5.70;;;10.40;99.90;;;;;;2621725;46;20046;31
2023/05/06 07:31:31;;;;;;;8.93;6.10;;;10.30;99.90;;;;;;2603574;54;20034;31
2023/05/06 07:34:07;;;;;;;14.95;6.60;;;10.40;99.90;;;;;;2603206;54;20258;31
2023/05/06 07:36:44;;;;;;;10.45;6.25;;;10.30;99.90;;;;;;2603635;54;20130;31
2023/05/06 07:39:21;;;;;;;13.60;7.00;;;10.30;99.90;;;;;;2603371;54;20859;31
2023/05/06 07:42:00;;;;;;;12.93;7.20;;;10.20;99.90;;;;;;2603490;54;20142;31
2023/05/06 07:44:39;;;;;;;10.35;6.60;;;10.10;99.90;;;;;;2603371;54;20030;31
2023/05/06 07:47:17;;;;;;;12.80;6.63;;;10.10;99.90;;;;;;2603667;54;21473;31
2023/05/06 07:49:52;;;;;;;11.27;6.68;;;10.00;99.90;;;;;;2603169;54;20026;31
2023/05/06 07:52:30;;;;;;;9.45;6.80;;;10.00;99.90;;;;;;2603605;54;20031;31
2023/05/06 07:55:08;;;;;;;12.48;7.10;;;10.00;99.90;;;;;;2621837;46;20038;31
2023/05/06 07:57:44;;;;;;;12.30;7.30;;;10.00;99.90;;;;;;2603536;54;20052;31
2023/05/06 08:00:25;;;;;;;13.00;7.28;;;10.00;99.90;;;;;;2622185;46;20026;31
2023/05/06 08:05:36;;;;;;;17.20;7.88;;;10.00;99.90;;;;;;2622055;46;19940;31
2023/05/06 08:08:12;;;;;;;12.13;6.82;;;10.00;99.90;;;;;;2603472;54;20770;31
2023/05/06 08:10:47;;;;;;;9.15;6.05;;;10.00;99.90;;;;;;2603515;54;20109;31
2023/05/06 08:13:23;;;;;;;12.67;6.80;;;10.00;99.90;;;;;;2603552;54;20081;31
2023/05/06 08:16:01;;;;;;;14.90;7.53;;;10.00;99.90;;;;;;2603274;54;20030;31
2023/05/06 08:18:37;;;;;;;12.43;7.25;;;9.90;99.90;;;;;;2603322;54;20856;31
2023/05/06 08:21:13;;;;;;;15.73;7.68;;;10.00;99.90;;;;;;2622149;46;20852;31
2023/05/06 08:23:51;;;;;;;12.07;7.78;;;9.90;99.90;;;;;;2603629;54;20023;31
2023/05/06 08:26:30;;;;;;;10.50;7.43;;;10.00;99.90;;;;;;2622129;46;20851;31
2023/05/06 08:29:07;;;;;;;15.57;8.90;;;10.00;99.90;;;;;;2621939;46;20037;31
2023/05/06 08:31:46;;;;;;;12.48;9.45;;;10.00;99.90;;;;;;2603051;54;20077;31
2023/05/06 08:34:22;;;;;;;17.35;9.70;;;10.00;99.90;;;;;;2621751;46;20034;31
2023/05/06 08:36:56;;;;;;;;;;;10.00;99.90;;;;;;2621645;46;20121;31
2023/05/06 08:39:33;;;;;;;15.00;9.03;;;10.10;99.90;;;;;;2622113;46;19938;31
2023/05/06 08:42:13;;;;;;;18.05;9.65;;;10.10;99.90;;;;;;2621941;46;19934;31
2023/05/06 08:44:48;;;;;;;10.63;7.93;;;10.10;99.90;;;;;;2603587;54;20050;31
2023/05/06 08:47:29;;;;;;;10.60;7.45;;;10.20;99.90;;;;;;2602774;54;20787;31
2023/05/06 08:50:06;;;;;;;12.55;7.55;;;10.30;99.90;;;;;;2602557;54;20091;31
2023/05/06 08:52:44;;;;;;;10.88;6.97;;;10.40;99.90;;;;;;2603317;54;20137;31
2023/05/06 08:55:19;;;;;;;14.70;7.35;;;10.40;99.90;;;;;;2621901;46;20099;31
2023/05/06 08:57:55;;;;;;;11.57;6.95;;;10.40;99.90;;;;;;2603144;54;20959;31
2023/05/06 09:00:33;;;;;;;12.00;8.20;;;10.50;99.90;;;;;;2603341;54;20026;31
2023/05/06 09:03:11;;;;;;;12.75;7.45;;;10.50;99.90;;;;;;2764700;31;20153;31
2023/05/06 09:05:49;;;;;;;16.20;8.10;;;10.50;99.90;;;;;;2603613;54;20027;31
2023/05/06 09:08:25;;;;;;;13.15;7.75;;;10.50;99.90;;;;;;2603269;54;20022;31
2023/05/06 09:11:02;;;;;;;12.52;8.23;;;10.50;99.90;;;;;;2603312;54;20846;31
2023/05/06 09:13:40;;;;;;;13.30;7.95;;;10.50;99.90;;;;;;2621622;46;20072;31
2023/05/06 09:16:28;;;;;;;12.40;8.15;;;10.50;99.90;;;;;;2621375;46;20027;31
2023/05/06 09:19:08;;;;;;;10.43;7.15;;;10.50;99.90;;;;;;2603068;54;20030;31
2023/05/06 09:21:43;;;;;;;15.70;8.45;;;10.50;99.90;;;;;;2621714;46;21005;31
2023/05/06 09:24:18;;;;;;;10.95;7.63;;;10.50;99.90;;;;;;2621821;46;20960;31
2023/05/06 09:26:58;;;;;;;11.20;8.30;;;10.50;99.90;;;;;;2621261;46;19931;31
2023/05/06 09:29:34;;;;;;;11.53;7.13;;;10.50;99.90;;;;;;2603196;54;20769;31
2023/05/06 09:32:10;;;;;;;;;;;10.60;99.90;;;;;;2602648;54;20242;31
2023/05/06 09:37:38;;;;;;;11.15;6.90;;;10.70;99.90;;;;;;2603186;54;20058;31
2023/05/06 09:40:15;;;;;;;10.68;7.95;;;10.70;99.90;;;;;;2603152;54;20889;31
2023/05/06 09:42:53;;;;;;;13.93;8.45;;;10.80;99.90;;;;;;2603172;54;19989;31
2023/05/06 09:45:31;;;;;;;12.15;8.15;;;10.80;99.90;;;;;;2602903;54;20725;31
2023/05/06 09:48:09;;;;;;;14.03;7.50;;;10.80;99.90;;;;;;2603139;54;20250;31
2023/05/06 09:50:46;;;;;;;11.80;8.02;;;10.80;99.90;;;;;;2621207;46;20038;31
2023/05/06 09:53:26;;;;;;;11.82;8.77;;;10.80;99.90;;;;;;2602938;54;20906;31
2023/05/06 09:56:04;;;;;;;16.05;9.65;;;10.80;99.90;;;;;;2602507;54;20037;31
2023/05/06 09:58:43;;;;;;;12.27;8.43;;;10.80;99.90;;;;;;2619354;46;20163;31
2023/05/06 10:01:22;;;;;;;10.63;8.50;;;10.80;99.90;;;;;;2603067;54;20038;31
2023/05/06 10:04:13;;;;;;;12.05;8.75;;;10.80;99.90;;;;;;2603247;54;20033;31
2023/05/06 10:06:53;;;;;;;17.35;10.45;;;10.80;99.90;;;;;;2621531;46;20030;31
2023/05/06 10:09:36;;;;;;;13.15;10.20;;;10.80;99.90;;;;;;2602172;54;20052;31
2023/05/06 10:12:13;;;;;;;13.90;10.07;;;10.80;99.90;;;;;;2602918;54;20049;31
2023/05/06 10:14:50;;;;;;;12.80;10.32;;;10.80;99.90;;;;;;2603045;54;20890;31
2023/05/06 10:17:27;;;;;;;14.57;8.40;;;10.80;99.90;;;;;;2602927;54;20752;31
2023/05/06 10:20:03;;;;;;;12.00;9.20;;;10.80;99.90;;;;;;2603200;54;20262;31
2023/05/06 10:22:45;;;;;;;13.90;9.95;;;10.80;99.90;;;;;;2621278;47;20051;31
2023/05/06 10:25:30;;;;;;;13.30;9.30;;;10.80;99.90;;;;;;2603029;54;20844;31
2023/05/06 10:28:08;;;;;;;14.85;10.05;;;10.90;99.90;;;;;;2603483;54;20085;31
2023/05/06 10:31:00;;;;;;;15.57;10.20;;;10.90;99.90;;;;;;2603700;54;20089;31
2023/05/06 10:33:36;;;;;;;11.85;8.48;;;10.90;99.90;;;;;;2603798;54;20767;31
2023/05/06 10:36:19;;;;;;;16.17;10.25;;;10.90;99.90;;;;;;2603789;54;20931;31
2023/05/06 10:38:55;;;;;;;15.00;9.80;;;10.90;99.90;;;;;;2603812;54;20861;31
2023/05/06 10:41:34;;;;;;;17.45;11.10;;;10.90;99.90;;;;;;2603986;54;20839;31
2023/05/06 10:44:12;;;;;;;15.52;10.55;;;10.90;99.90;;;;;;2603708;54;20452;31
2023/05/06 10:47:08;;;;;;;13.25;9.95;;;10.90;99.90;;;;;;2603620;54;20031;31
2023/05/06 10:49:46;;;;;;;16.63;10.60;;;11.00;99.90;;;;;;2603635;54;20924;31
2023/05/06 10:52:22;;;;;;;12.77;9.27;;;11.00;99.90;;;;;;2702083;39;21432;31
2023/05/06 10:55:02;;;;;;;18.20;11.57;;;11.00;99.90;;;;;;2603762;54;20054;31
2023/05/06 10:57:38;;;;;;;14.38;10.68;;;11.00;99.90;;;;;;2603806;54;20880;31
2023/05/06 11:00:22;;;;;;;15.07;9.85;;;11.10;99.90;;;;;;2603049;54;20023;31
2023/05/06 11:02:59;;;;;;;13.93;9.82;;;11.10;99.90;;;;;;2621898;46;20026;31
2023/05/06 11:05:37;;;;;;;15.38;9.95;;;11.10;99.90;;;;;;2603778;54;20037;31
2023/05/06 11:08:14;;;;;;;15.80;10.80;;;11.10;99.90;;;;;;2622275;46;20034;31
2023/05/06 11:10:55;;;;;;;13.98;9.32;;;11.20;99.90;;;;;;2603745;54;20082;31
2023/05/06 11:13:38;;;;;;;14.18;9.57;;;11.30;99.90;;;;;;2603421;54;20030;31
2023/05/06 11:18:53;;;;;;;12.43;9.63;;;11.20;99.90;;;;;;2603865;54;20891;31
2023/05/06 11:21:56;;;;;;;13.35;8.75;;;11.30;99.90;;;;;;2603388;54;20031;31
2023/05/06 11:24:43;;;;;;;14.55;8.73;;;11.30;99.90;;;;;;2603562;54;20097;31
2023/05/06 11:27:18;;;;;;;12.75;8.45;;;11.30;99.90;;;;;;2603405;54;20027;31
2023/05/06 11:29:55;;;;;;;13.88;8.30;;;11.30;99.90;;;;;;2622084;46;20029;31
2023/05/06 11:32:32;;;;;;;13.88;8.93;;;11.40;99.90;;;;;;2603503;54;20038;31
2023/05/06 11:35:12;;;;;;;11.82;8.32;;;11.40;99.90;;;;;;2603474;54;20913;31
2023/05/06 11:37:47;;;;;;;12.77;9.60;;;11.40;99.90;;;;;;2603442;54;20030;31
2023/05/06 11:40:24;;;;;;;12.70;9.25;;;11.40;99.90;;;;;;2603328;54;20053;31
2023/05/06 11:43:11;;;;;;;12.57;8.13;;;11.50;99.90;;;;;;2603549;54;20032;31
2023/05/06 11:45:47;;;;;;;12.30;7.78;;;11.50;99.90;;;;;;2621784;46;20030;31
2023/05/06 11:48:28;;;;;;;12.55;8.85;;;11.60;99.90;;;;;;2603446;54;20937;31
2023/05/06 11:51:07;;;;;;;12.18;9.40;;;11.60;99.90;;;;;;2603455;54;20120;31
2023/05/06 11:53:45;;;;;;;10.45;8.25;;;11.60;99.90;;;;;;2622152;46;20026;31
2023/05/06 11:56:28;;;;;;;15.88;8.50;;;11.70;99.90;;;;;;2621859;46;20054;31
2023/05/06 11:59:06;;;;;;;13.63;9.27;;;11.70;99.90;;;;;;2603394;54;20037;31
2023/05/06 12:01:45;;;;;;;13.75;8.63;;;11.70;99.90;;;;;;2622235;46;20136;31
2023/05/06 12:04:27;;;;;;;11.85;8.82;;;11.80;99.90;;;;;;2603662;54;20034;31
2023/05/06 12:07:10;;;;;;;10.40;8.23;;;11.80;99.90;;;;;;2602819;54;20752;31
2023/05/06 12:09:50;;;;;;;11.20;8.50;;;11.80;99.90;;;;;;2603470;54;20033;31
2023/05/06 12:12:31;;;;;;;11.65;8.95;;;11.80;99.90;;;;;;2603661;54;20027;31
2023/05/06 12:15:08;;;;;;;11.68;8.35;;;11.70;99.90;;;;;;2603404;54;20156;31
2023/05/06 12:17:45;;;;;;;12.30;8.23;;;11.70;99.90;;;;;;2603433;54;20085;31
2023/05/06 12:20:22;;;;;;;14.98;8.93;;;11.80;99.90;;;;;;2650454;39;21533;31
2023/05/06 12:23:10;;;;;;;12.13;7.97;;;11.70;99.90;;;;;;2603624;54;20168;31
2023/05/06 12:25:47;;;;;;;11.85;8.35;;;11.70;99.90;;;;;;2603596;54;20057;31
2023/05/06 12:28:23;;;;;;;11.50;7.30;;;11.70;99.90;;;;;;2621696;46;20077;31
2023/05/06 12:31:04;;;;;;;13.38;8.73;;;11.70;99.90;;;;;;2603277;54;20089;31
2023/05/06 12:33:47;;;;;;;9.63;7.55;;;11.80;99.90;;;;;;2622119;46;20117;31
2023/05/06 12:36:23;;;;;;;13.87;7.67;;;11.70;99.90;;;;;;2603270;54;20117;31
2023/05/06 12:39:04;;;;;;;9.53;7.87;;;11.80;99.90;;;;;;2602701;54;20767;31
2023/05/06 12:41:42;;;;;;;11.35;7.72;;;11.80;99.90;;;;;;2701271;39;21467;31
2023/05/06 12:44:34;;;;;;;10.35;7.95;;;11.80;99.90;;;;;;2602789;54;20038;31
2023/05/06 12:47:10;;;;;;;13.23;8.25;;;11.90;99.90;;;;;;2603201;54;20125;31
2023/05/06 12:49:49;;;;;;;14.02;9.00;;;11.90;99.90;;;;;;2621873;46;20026;31
2023/05/06 12:52:30;;;;;;;11.07;9.27;;;11.90;99.90;;;;;;2621263;46;20102;31
2023/05/06 12:55:12;;;;;;;9.27;8.05;;;11.90;99.90;;;;;;2603449;54;20022;31
2023/05/06 12:57:52;;;;;;;12.10;9.35;;;11.90;99.90;;;;;;2603430;54;20029;31
2023/05/06 13:00:32;;;;;;;13.80;9.00;;;12.00;99.90;;;;;;2603317;54;20030;31
2023/05/06 13:03:10;;;;;;;11.20;8.80;;;12.00;99.90;;;;;;2603241;54;20031;31
2023/05/06 13:05:48;;;;;;;14.25;9.75;;;12.00;99.90;;;;;;2602528;54;20968;31
2023/05/06 13:08:25;;;;;;;12.60;8.50;;;12.00;99.90;;;;;;2603271;54;20033;31
2023/05/06 13:11:03;;;;;;;;;;;12.00;99.90;;;;;;2603499;54;20061;31
2023/05/06 13:13:39;;;;;;;10.95;8.82;;;12.10;99.90;;;;;;2603250;54;20793;31
2023/05/06 13:16:18;;;;;;;10.70;7.63;;;12.10;99.90;;;;;;2602960;54;20030;31
2023/05/06 13:18:56;;;;;;;11.55;9.40;;;12.10;99.90;;;;;;2603509;54;20162;31
2023/05/06 13:21:32;;;;;;;12.82;8.68;;;12.20;99.90;;;;;;2603262;54;21352;31
2023/05/06 13:24:11;;;;;;;10.95;8.35;;;12.10;99.90;;;;;;2603294;54;21185;31
2023/05/06 13:26:50;;;;;;;11.27;8.60;;;12.10;99.90;;;;;;2602965;54;20778;31
2023/05/06 13:29:28;;;;;;;13.97;9.23;;;12.10;99.90;;;;;;2621642;46;20030;31
2023/05/06 13:32:04;;;;;;;11.90;8.85;;;12.10;99.90;;;;;;2603180;54;20045;31
2023/05/06 13:34:42;;;;;;;14.50;9.95;;;12.10;99.90;;;;;;2603281;54;20128;31
2023/05/06 13:37:21;;;;;;;16.90;9.00;;;12.10;99.90;;;;;;2603297;54;20952;31
2023/05/06 13:39:56;;;;;;;10.25;8.75;;;12.10;99.90;;;;;;2602476;54;20896;31
2023/05/06 13:42:40;;;;;;;14.07;9.48;;;12.20;99.90;;;;;;2621709;46;20027;31
2023/05/06 13:45:17;;;;;;;11.20;8.23;;;12.20;99.90;;;;;;2603355;54;19935;31
2023/05/06 13:47:54;;;;;;;12.60;9.48;;;12.20;99.90;;;;;;2602918;54;20801;31
2023/05/06 13:50:34;;;;;;;13.02;8.82;;;12.20;99.90;;;;;;2621495;46;20077;31
2023/05/06 13:53:11;;;;;;;17.67;11.30;;;12.20;99.90;;;;;;2602941;54;20752;31
2023/05/06 13:55:46;;;;;;;18.20;14.82;;;12.20;99.90;;;;;;2602980;54;20928;31
2023/05/06 13:58:28;;;;;;;25.02;18.05;;;12.20;99.90;;;;;;2602548;54;20865;31
2023/05/06 14:01:06;;;;;;;23.35;16.45;;;12.20;99.90;;;;;;2603083;54;20033;31
2023/05/06 14:03:42;;;;;;;24.45;18.88;;;12.20;99.90;;;;;;2603085;54;20847;31
2023/05/06 14:06:19;;;;;;;17.15;13.10;;;12.10;99.90;;;;;;2621682;46;20031;31